createdAt,value
2022-10-11T00:01:17.865Z,18.30
2022-10-11T00:03:46.400Z,18.10
2022-10-11T00:06:14.804Z,18.00
2022-10-11T00:08:43.235Z,18.00
2022-10-11T00:11:11.807Z,17.90
2022-10-11T00:13:40.285Z,17.90
2022-10-11T00:16:12.047Z,17.90
2022-10-11T00:18:41.431Z,17.90
2022-10-11T00:21:14.284Z,18.00
2022-10-11T00:23:44.128Z,18.00
2022-10-11T00:26:13.159Z,18.10
2022-10-11T00:28:42.379Z,18.20
2022-10-11T00:31:14.821Z,18.20
2022-10-11T00:33:43.417Z,18.20
2022-10-11T00:36:13.831Z,18.10
2022-10-11T00:38:42.563Z,18.10
2022-10-11T00:41:11.183Z,18.10
2022-10-11T00:43:39.752Z,18.00
2022-10-11T00:46:29.203Z,18.00
2022-10-11T00:49:02.320Z,18.10
2022-10-11T00:51:41.853Z,18.10
2022-10-11T00:54:14.957Z,18.10
2022-10-11T00:56:46.384Z,17.90
2022-10-11T00:59:17.871Z,18.00
2022-10-11T01:01:47.891Z,18.00
2022-10-11T01:04:16.652Z,18.00
2022-10-11T01:06:46.009Z,17.90
2022-10-11T01:09:15.669Z,17.90
2022-10-11T01:11:45.361Z,17.80
2022-10-11T01:14:38.063Z,17.80
2022-10-11T01:17:19.077Z,17.80
2022-10-11T01:20:06.311Z,17.70
2022-10-11T01:23:01.033Z,17.60
2022-10-11T01:25:37.609Z,17.60
2022-10-11T01:28:24.186Z,17.40
2022-10-11T01:30:59.509Z,17.40
2022-10-11T01:33:35.271Z,17.30
2022-10-11T01:36:13.569Z,17.20
2022-10-11T01:38:47.138Z,17.10
2022-10-11T01:41:20.072Z,17.10
2022-10-11T01:43:51.244Z,17.10
2022-10-11T01:46:22.473Z,17.00
2022-10-11T01:48:52.513Z,17.20
2022-10-11T01:51:22.488Z,17.20
2022-10-11T01:54:12.545Z,17.10
2022-10-11T01:57:08.628Z,17.10
2022-10-11T01:59:48.533Z,17.20
2022-10-11T02:02:36.825Z,17.30
2022-10-11T02:05:11.015Z,17.30
2022-10-11T02:07:45.844Z,17.30
2022-10-11T02:10:22.414Z,17.30
2022-10-11T02:12:55.786Z,17.20
2022-10-11T02:15:28.606Z,17.30
2022-10-11T02:18:01.872Z,17.30
2022-10-11T02:20:34.079Z,17.30
2022-10-11T02:23:09.000Z,17.20
2022-10-11T02:25:39.038Z,17.20
2022-10-11T02:28:12.734Z,17.10
2022-10-11T02:30:43.297Z,17.10
2022-10-11T02:33:16.727Z,17.10
2022-10-11T02:35:50.285Z,17.00
2022-10-11T02:38:25.638Z,16.90
2022-10-11T02:40:59.254Z,16.90
2022-10-11T02:43:36.629Z,16.80
2022-10-11T02:46:07.636Z,16.80
2022-10-11T02:48:39.821Z,16.70
2022-10-11T02:51:14.314Z,16.70
2022-10-11T02:53:43.580Z,16.70
2022-10-11T02:56:11.977Z,16.60
2022-10-11T02:58:40.515Z,16.80
2022-10-11T03:01:09.029Z,16.70
2022-10-11T03:03:39.273Z,16.70
2022-10-11T03:06:08.748Z,16.70
2022-10-11T03:08:38.788Z,16.60
2022-10-11T03:11:07.378Z,16.60
2022-10-11T03:13:35.859Z,16.60
2022-10-11T03:16:04.312Z,16.60
2022-10-11T03:18:33.008Z,16.60
2022-10-11T03:21:02.863Z,16.70
2022-10-11T03:23:31.331Z,16.70
2022-10-11T03:26:00.789Z,16.80
2022-10-11T03:28:30.999Z,16.80
2022-10-11T03:30:59.519Z,16.80
2022-10-11T03:33:28.034Z,16.90
2022-10-11T03:35:56.482Z,16.90
2022-10-11T03:38:26.253Z,17.00
2022-10-11T03:40:54.821Z,17.10
2022-10-11T03:43:23.384Z,17.20
2022-10-11T03:45:51.778Z,17.20
2022-10-11T03:48:20.581Z,17.20
2022-10-11T03:50:49.915Z,17.30
2022-10-11T03:53:18.332Z,17.20
2022-10-11T03:55:48.160Z,17.30
2022-10-11T03:58:16.629Z,17.20
2022-10-11T04:00:44.976Z,17.20
2022-10-11T04:03:13.421Z,17.30
2022-10-11T04:05:41.849Z,17.30
2022-10-11T04:08:12.323Z,17.30
2022-10-11T04:10:41.333Z,17.40
2022-10-11T04:13:11.336Z,17.40
2022-10-11T04:15:41.303Z,17.50
2022-10-11T04:18:10.204Z,17.50
2022-10-11T04:20:38.671Z,17.50
2022-10-11T04:23:07.060Z,17.50
2022-10-11T04:25:35.741Z,17.50
2022-10-11T04:28:04.147Z,17.40
2022-10-11T04:30:33.945Z,17.40
2022-10-11T04:33:02.361Z,17.40
2022-10-11T04:35:31.049Z,17.40
2022-10-11T04:37:59.470Z,17.40
2022-10-11T04:40:27.925Z,17.40
2022-10-11T04:42:56.359Z,17.40
2022-10-11T04:45:24.788Z,17.40
2022-10-11T04:47:54.632Z,17.40
2022-10-11T04:50:23.103Z,17.50
2022-10-11T04:52:51.526Z,17.60
2022-10-11T04:55:20.009Z,17.60
2022-10-11T04:57:48.424Z,17.70
2022-10-11T05:00:17.423Z,17.70
2022-10-11T05:02:45.811Z,17.70
2022-10-11T05:05:17.697Z,17.70
2022-10-11T05:07:46.997Z,17.50
2022-10-11T05:10:15.766Z,17.50
2022-10-11T05:12:44.244Z,17.50
2022-10-11T05:15:12.715Z,17.60
2022-10-11T05:17:41.240Z,17.60
2022-10-11T05:20:10.563Z,17.70
2022-10-11T05:22:40.395Z,17.80
2022-10-11T05:25:09.341Z,17.80
2022-10-11T05:27:37.774Z,17.70
2022-10-11T05:30:07.390Z,17.70
2022-10-11T05:32:35.851Z,17.70
2022-10-11T05:35:04.322Z,17.70
2022-10-11T05:37:32.824Z,17.60
2022-10-11T05:40:02.641Z,17.60
2022-10-11T05:42:31.085Z,17.50
2022-10-11T05:44:59.464Z,17.60
2022-10-11T05:47:28.025Z,17.70
2022-10-11T05:49:56.477Z,17.80
2022-10-11T05:52:25.861Z,17.90
2022-10-11T05:54:54.308Z,17.80
2022-10-11T05:57:24.205Z,17.70
2022-10-11T05:59:52.589Z,17.60
2022-10-11T06:02:21.096Z,17.50
2022-10-11T06:04:49.712Z,17.40
2022-10-11T06:07:18.246Z,17.30
2022-10-11T06:09:46.683Z,17.30
2022-10-11T06:12:15.358Z,17.40
2022-10-11T06:14:45.204Z,17.40
2022-10-11T06:17:13.596Z,17.50
2022-10-11T06:19:42.017Z,17.50
2022-10-11T06:22:12.496Z,17.40
2022-10-11T06:24:41.063Z,17.30
2022-10-11T06:27:09.496Z,17.10
2022-10-11T06:29:38.201Z,17.10
2022-10-11T06:32:08.363Z,17.00
2022-10-11T06:34:36.810Z,16.90
2022-10-11T06:37:05.206Z,16.90
2022-10-11T06:39:33.626Z,17.00
2022-10-11T06:42:02.064Z,17.00
2022-10-11T06:44:30.664Z,16.90
2022-10-11T06:46:59.187Z,16.80
2022-10-11T06:49:29.079Z,16.90
2022-10-11T06:51:57.684Z,16.80
2022-10-11T06:54:26.336Z,16.80
2022-10-11T06:56:54.809Z,16.80
2022-10-11T06:59:23.248Z,16.80
2022-10-11T07:01:51.675Z,16.80
2022-10-11T07:04:20.150Z,16.80
2022-10-11T07:06:50.195Z,16.80
2022-10-11T07:09:18.618Z,16.80
2022-10-11T07:11:49.038Z,16.80
2022-10-11T07:14:17.513Z,16.80
2022-10-11T07:16:45.930Z,16.90
2022-10-11T07:19:14.414Z,16.90
2022-10-11T07:21:43.066Z,17.00
2022-10-11T07:24:12.971Z,17.10
2022-10-11T07:26:42.405Z,17.20
2022-10-11T07:29:12.957Z,17.30
2022-10-11T07:31:43.175Z,17.40
2022-10-11T07:34:12.058Z,17.50
2022-10-11T07:36:40.544Z,17.50
2022-10-11T07:39:09.991Z,17.70
2022-10-11T07:41:45.448Z,17.80
2022-10-11T07:44:14.922Z,17.90
2022-10-11T07:46:43.424Z,18.00
2022-10-11T07:49:12.766Z,18.10
2022-10-11T07:51:41.261Z,18.20
2022-10-11T07:54:09.977Z,18.20
2022-10-11T07:56:40.319Z,18.30
2022-10-11T07:59:08.872Z,18.40
2022-10-11T08:01:37.350Z,18.50
2022-10-11T08:04:06.975Z,18.50
2022-10-11T08:06:36.682Z,18.60
2022-10-11T08:09:05.772Z,18.60
2022-10-11T08:11:36.196Z,18.60
2022-10-11T08:14:11.427Z,18.60
2022-10-11T08:16:40.848Z,18.50
2022-10-11T08:19:09.639Z,18.50
2022-10-11T08:21:38.415Z,18.40
2022-10-11T08:24:07.620Z,18.40
2022-10-11T08:26:36.218Z,18.30
2022-10-11T08:29:06.286Z,18.20
2022-10-11T08:31:35.754Z,18.10
2022-10-11T08:34:04.290Z,17.90
2022-10-11T08:36:32.781Z,17.80
2022-10-11T08:39:02.117Z,17.80
2022-10-11T08:41:39.120Z,17.70
2022-10-11T08:44:41.570Z,17.70
2022-10-11T08:47:24.103Z,17.90
2022-10-11T08:49:52.964Z,18.00
2022-10-11T08:52:24.475Z,18.00
2022-10-11T08:54:57.489Z,18.20
2022-10-11T08:57:28.788Z,18.30
2022-10-11T09:00:00.699Z,18.40
2022-10-11T09:03:06.382Z,18.50
2022-10-11T09:05:32.360Z,18.60
2022-10-11T09:08:08.212Z,18.80
2022-10-11T09:10:52.604Z,18.90
2022-10-11T09:13:35.939Z,19.00
2022-10-11T09:16:15.475Z,19.00
2022-10-11T09:19:00.607Z,19.00
2022-10-11T09:21:38.454Z,19.10
2022-10-11T09:24:29.506Z,19.10
2022-10-11T09:27:00.977Z,19.10
2022-10-11T09:29:47.387Z,19.10
2022-10-11T09:32:21.039Z,19.20
2022-10-11T09:34:54.919Z,19.20
2022-10-11T09:37:28.934Z,19.20
2022-10-11T09:40:07.020Z,19.10
2022-10-11T09:42:35.557Z,19.10
2022-10-11T09:45:14.480Z,19.10
2022-10-11T09:47:44.406Z,19.10
2022-10-11T09:50:18.835Z,19.10
2022-10-11T09:52:50.835Z,19.10
2022-10-11T09:55:34.403Z,19.10
2022-10-11T09:58:04.056Z,19.10
2022-10-11T10:00:34.031Z,19.30
2022-10-11T10:03:07.396Z,19.40
2022-10-11T10:05:38.600Z,19.60
2022-10-11T10:08:23.947Z,19.70
2022-10-11T10:11:01.373Z,19.90
2022-10-11T10:13:38.986Z,19.90
2022-10-11T10:16:11.771Z,20.00
2022-10-11T10:18:45.506Z,20.10
2022-10-11T10:21:17.065Z,20.10
2022-10-11T10:23:45.805Z,20.20
2022-10-11T10:26:17.464Z,20.30
2022-10-11T10:29:18.700Z,20.40
2022-10-11T10:32:13.263Z,20.30
2022-10-11T10:34:56.582Z,20.30
2022-10-11T10:37:30.550Z,20.30
2022-10-11T10:40:07.155Z,20.20
2022-10-11T10:42:35.808Z,20.10
2022-10-11T10:45:11.917Z,20.10
2022-10-11T10:47:57.993Z,20.20
2022-10-11T10:50:33.263Z,20.30
2022-10-11T10:53:14.212Z,20.40
2022-10-11T10:55:46.156Z,20.40
2022-10-11T10:58:28.898Z,20.50
2022-10-11T11:01:02.525Z,20.50
2022-10-11T11:03:36.606Z,20.40
2022-10-11T11:06:09.870Z,20.30
2022-10-11T11:09:04.614Z,20.30
2022-10-11T11:11:46.793Z,20.30
2022-10-11T11:14:26.213Z,20.30
2022-10-11T11:17:02.685Z,20.30
2022-10-11T11:19:45.495Z,20.20
2022-10-11T11:22:29.103Z,20.20
2022-10-11T11:25:09.053Z,20.30
2022-10-11T11:27:54.055Z,20.10
2022-10-11T11:30:28.240Z,20.10
2022-10-11T11:33:05.757Z,20.00
2022-10-11T11:35:40.685Z,19.90
2022-10-11T11:38:19.698Z,19.90
2022-10-11T11:40:53.214Z,19.70
2022-10-11T11:43:27.905Z,19.60
2022-10-11T11:46:01.554Z,19.50
2022-10-11T11:48:30.432Z,19.40
2022-10-11T11:51:06.988Z,19.20
2022-10-11T11:53:52.883Z,19.10
2022-10-11T11:56:28.870Z,19.00
2022-10-11T11:59:07.852Z,19.00
2022-10-11T12:01:43.649Z,19.00
2022-10-11T12:04:21.746Z,19.00
2022-10-11T12:07:15.792Z,19.10
2022-10-11T12:09:50.639Z,19.20
2022-10-11T12:12:31.816Z,19.40
2022-10-11T12:15:17.865Z,19.60
2022-10-11T12:18:05.471Z,19.60
2022-10-11T12:20:38.078Z,19.60
2022-10-11T12:23:46.047Z,19.60
2022-10-11T12:26:33.155Z,19.50
2022-10-11T12:29:29.111Z,19.50
2022-10-11T12:32:50.129Z,19.50
2022-10-11T12:36:02.747Z,19.50
2022-10-11T12:38:37.398Z,19.50
2022-10-11T12:41:50.368Z,19.50
2022-10-11T12:44:26.433Z,19.50
2022-10-11T12:47:18.134Z,19.50
2022-10-11T12:50:01.377Z,19.40
2022-10-11T12:52:40.426Z,19.60
2022-10-11T12:55:31.048Z,19.70
2022-10-11T12:58:38.374Z,19.70
2022-10-11T13:01:17.598Z,19.60
2022-10-11T13:03:49.378Z,19.40
2022-10-11T13:06:21.619Z,19.50
2022-10-11T13:08:54.714Z,19.30
2022-10-11T13:11:26.485Z,19.30
2022-10-11T13:13:59.203Z,19.30
2022-10-11T13:16:30.812Z,19.40
2022-10-11T13:19:01.220Z,19.20
2022-10-11T13:21:35.275Z,18.80
2022-10-11T13:24:11.410Z,18.50
2022-10-11T13:26:40.031Z,18.20
2022-10-11T13:29:17.526Z,18.10
2022-10-11T13:31:48.095Z,18.00
2022-10-11T13:34:22.403Z,18.00
2022-10-11T13:36:57.265Z,17.90
2022-10-11T13:39:31.266Z,17.90
2022-10-11T13:42:02.126Z,18.00
2022-10-11T13:44:35.519Z,18.10
2022-10-11T13:47:05.577Z,18.30
2022-10-11T13:49:39.868Z,18.30
2022-10-11T13:52:22.340Z,18.30
2022-10-11T13:55:00.429Z,18.40
2022-10-11T13:57:39.045Z,18.30
2022-10-11T14:00:27.092Z,18.40
2022-10-11T14:02:59.829Z,18.40
2022-10-11T14:05:34.736Z,18.40
2022-10-11T14:08:06.999Z,18.40
2022-10-11T14:10:36.158Z,18.50
2022-10-11T14:13:23.752Z,18.60
2022-10-11T14:16:06.053Z,18.50
2022-10-11T14:18:44.560Z,18.60
2022-10-11T14:21:25.798Z,18.50
2022-10-11T14:23:55.890Z,18.50
2022-10-11T14:26:25.669Z,18.30
2022-10-11T14:28:58.794Z,18.30
2022-10-11T14:31:32.281Z,18.30
2022-10-11T14:34:01.096Z,18.20
2022-10-11T14:36:29.723Z,18.20
2022-10-11T14:38:58.230Z,18.30
2022-10-11T14:41:26.741Z,18.30
2022-10-11T14:43:56.663Z,18.40
2022-10-11T14:46:26.825Z,18.50
2022-10-11T14:48:57.009Z,18.50
2022-10-11T14:51:30.810Z,18.60
2022-10-11T14:53:59.557Z,18.70
2022-10-11T14:56:27.981Z,18.60
2022-10-11T14:58:57.333Z,18.70
2022-10-11T15:01:26.132Z,18.70
2022-10-11T15:03:56.064Z,18.80
2022-10-11T15:06:28.492Z,18.70
2022-10-11T15:08:57.084Z,18.60
2022-10-11T15:11:26.246Z,18.50
2022-10-11T15:13:55.050Z,18.30
2022-10-11T15:16:25.363Z,18.20
2022-10-11T15:18:54.126Z,18.10
2022-10-11T15:21:25.661Z,18.00
2022-10-11T15:23:55.832Z,18.20
2022-10-11T15:26:26.126Z,18.20
2022-10-11T15:28:56.129Z,18.20
2022-10-11T15:31:24.947Z,18.10
2022-10-11T15:33:53.616Z,18.10
2022-10-11T15:36:24.662Z,18.00
2022-10-11T15:38:53.474Z,18.00
2022-10-11T15:41:22.066Z,18.00
2022-10-11T15:43:51.111Z,17.90
2022-10-11T15:46:22.321Z,17.80
2022-10-11T15:48:52.809Z,17.80
2022-10-11T15:51:21.282Z,17.70
2022-10-11T15:53:51.155Z,17.70
2022-10-11T15:56:19.854Z,17.60
2022-10-11T15:58:48.591Z,17.50
2022-10-11T16:01:18.865Z,17.50
2022-10-11T16:03:48.366Z,17.50
2022-10-11T16:06:17.161Z,17.50
2022-10-11T16:08:45.930Z,17.50
2022-10-11T16:11:16.207Z,17.50
2022-10-11T16:13:45.221Z,17.50
2022-10-11T16:16:14.038Z,17.60
2022-10-11T16:18:44.248Z,17.70
2022-10-11T16:21:15.723Z,17.60
2022-10-11T16:23:44.840Z,17.70
2022-10-11T16:26:16.645Z,17.60
2022-10-11T16:28:47.797Z,17.60
2022-10-11T16:31:20.733Z,17.60
2022-10-11T16:33:50.309Z,17.60
2022-10-11T16:36:32.998Z,17.50
2022-10-11T16:39:03.155Z,17.60
2022-10-11T16:41:33.255Z,17.50
2022-10-11T16:44:02.458Z,17.50
2022-10-11T16:46:30.970Z,17.40
2022-10-11T16:48:59.856Z,17.40
2022-10-11T16:51:28.398Z,17.40
2022-10-11T16:53:57.085Z,17.40
2022-10-11T16:56:25.596Z,17.40
2022-10-11T16:58:56.031Z,17.50
2022-10-11T17:01:25.065Z,17.40
2022-10-11T17:03:54.141Z,17.50
2022-10-11T17:06:22.621Z,17.50
2022-10-11T17:08:51.294Z,17.50
2022-10-11T17:11:21.776Z,17.50
2022-10-11T17:13:51.644Z,17.40
2022-10-11T17:16:24.841Z,17.40
2022-10-11T17:18:53.502Z,17.50
2022-10-11T17:21:23.009Z,17.50
2022-10-11T17:23:51.652Z,17.50
2022-10-11T17:26:22.424Z,17.40
2022-10-11T17:28:51.053Z,17.40
2022-10-11T17:31:22.050Z,17.20
2022-10-11T17:33:50.562Z,17.20
2022-10-11T17:36:23.334Z,17.10
2022-10-11T17:38:53.348Z,17.00
2022-10-11T17:41:22.103Z,17.00
2022-10-11T17:43:50.806Z,17.00
2022-10-11T17:46:22.356Z,17.00
2022-10-11T17:48:55.018Z,17.00
2022-10-11T17:51:24.037Z,17.00
2022-10-11T17:53:53.302Z,17.10
2022-10-11T17:56:28.789Z,17.10
2022-10-11T17:59:00.284Z,17.00
2022-10-11T18:01:30.852Z,17.00
2022-10-11T18:04:00.822Z,17.00
2022-10-11T18:06:30.994Z,16.90
2022-10-11T18:09:02.857Z,16.90
2022-10-11T18:11:32.420Z,16.90
2022-10-11T18:14:01.266Z,16.90
2022-10-11T18:16:34.380Z,16.90
2022-10-11T18:19:04.986Z,17.00
2022-10-11T18:21:34.929Z,17.00
2022-10-11T18:24:05.745Z,17.10
2022-10-11T18:26:34.482Z,17.00
2022-10-11T18:29:03.160Z,16.90
2022-10-11T18:31:35.973Z,16.90
2022-10-11T18:34:05.208Z,16.90
2022-10-11T18:36:34.256Z,16.90
2022-10-11T18:39:05.277Z,16.90
2022-10-11T18:41:35.459Z,16.90
2022-10-11T18:44:06.394Z,16.80
2022-10-11T18:46:36.987Z,16.70
2022-10-11T18:49:05.766Z,16.70
2022-10-11T18:51:36.750Z,16.80
2022-10-11T18:54:06.323Z,16.80
2022-10-11T18:56:36.621Z,16.70
2022-10-11T18:59:06.136Z,16.70
2022-10-11T19:01:38.327Z,16.70
2022-10-11T19:04:09.085Z,16.60
2022-10-11T19:06:39.666Z,16.80
2022-10-11T19:09:10.339Z,16.80
2022-10-11T19:11:39.213Z,16.90
2022-10-11T19:14:10.013Z,16.90
2022-10-11T19:16:42.368Z,16.80
2022-10-11T19:19:13.055Z,16.80
2022-10-11T19:21:41.622Z,16.80
2022-10-11T19:24:10.510Z,16.90
2022-10-11T19:26:41.177Z,16.80
2022-10-11T19:29:11.789Z,16.80
2022-10-11T19:31:45.349Z,16.80
2022-10-11T19:34:14.158Z,16.80
2022-10-11T19:36:43.324Z,16.70
2022-10-11T19:39:13.038Z,16.80
2022-10-11T19:41:42.834Z,16.80
2022-10-11T19:44:11.912Z,16.80
2022-10-11T19:46:57.535Z,16.70
2022-10-11T19:49:30.169Z,16.70
2022-10-11T19:51:58.667Z,16.60
2022-10-11T19:54:27.312Z,16.60
2022-10-11T19:56:55.729Z,16.60
2022-10-11T19:59:24.221Z,16.60
2022-10-11T20:01:53.478Z,16.70
2022-10-11T20:04:50.539Z,16.60
2022-10-11T20:07:13.190Z,16.60
2022-10-11T20:09:41.712Z,16.60
2022-10-11T20:12:10.350Z,16.60
2022-10-11T20:14:38.831Z,16.60
2022-10-11T20:17:07.411Z,16.70
2022-10-11T20:19:35.938Z,16.70
2022-10-11T20:22:04.460Z,16.70
2022-10-11T20:24:34.707Z,16.60
2022-10-11T20:27:05.233Z,16.60
2022-10-11T20:29:33.706Z,16.50
2022-10-11T20:32:02.239Z,16.60
2022-10-11T20:34:31.172Z,16.50
2022-10-11T20:36:59.668Z,16.50
2022-10-11T20:39:28.383Z,16.50
2022-10-11T20:41:58.262Z,16.50
2022-10-11T20:44:26.860Z,16.40
2022-10-11T20:46:55.775Z,16.40
2022-10-11T20:49:25.276Z,16.50
2022-10-11T20:51:53.686Z,16.40
2022-10-11T20:54:22.180Z,16.50
2022-10-11T20:56:51.551Z,16.50
2022-10-11T20:59:21.404Z,16.50
2022-10-11T21:01:50.091Z,16.40
2022-10-11T21:04:20.845Z,16.40
2022-10-11T21:06:49.988Z,16.40
2022-10-11T21:09:19.239Z,16.40
2022-10-11T21:11:47.772Z,16.30
2022-10-11T21:14:16.454Z,16.40
2022-10-11T21:16:46.337Z,16.40
2022-10-11T21:19:16.613Z,16.30
2022-10-11T21:21:52.478Z,16.30
2022-10-11T21:24:23.268Z,16.30
2022-10-11T21:26:52.733Z,16.30
2022-10-11T21:29:22.530Z,16.30
2022-10-11T21:31:52.383Z,16.20
2022-10-11T21:34:20.938Z,16.20
2022-10-11T21:36:49.393Z,16.30
2022-10-11T21:39:17.954Z,16.30
2022-10-11T21:41:46.432Z,16.30
2022-10-11T21:44:15.924Z,16.30
2022-10-11T21:49:34.442Z,16.40
2022-10-11T21:52:03.195Z,16.40
2022-10-11T21:54:31.725Z,16.30
2022-10-11T21:57:00.208Z,16.40
2022-10-11T21:59:28.709Z,16.40
2022-10-11T22:02:01.658Z,16.50
2022-10-11T22:04:30.779Z,16.50
2022-10-11T22:07:00.784Z,16.50
2022-10-11T22:09:30.001Z,16.50
2022-10-11T22:11:58.698Z,16.50
2022-10-11T22:14:27.734Z,16.50
2022-10-11T22:16:56.268Z,16.50
2022-10-11T22:19:24.996Z,16.60
2022-10-11T22:21:53.453Z,16.60
2022-10-11T22:24:23.326Z,16.60
2022-10-11T22:26:51.795Z,16.70
2022-10-11T22:29:20.292Z,16.70
2022-10-11T22:31:48.692Z,16.70
2022-10-11T22:34:17.218Z,16.70
2022-10-11T22:36:45.638Z,16.70
2022-10-11T22:39:14.147Z,16.80
2022-10-11T22:41:44.040Z,16.80
2022-10-11T22:44:12.828Z,16.80
2022-10-11T22:46:41.290Z,16.80
2022-10-11T22:49:09.849Z,16.90
2022-10-11T22:51:38.370Z,16.90
2022-10-11T22:54:07.072Z,16.90
2022-10-11T22:56:35.557Z,16.90
2022-10-11T22:59:05.470Z,16.90
2022-10-11T23:01:33.998Z,16.90
2022-10-11T23:04:02.587Z,17.00
2022-10-11T23:06:31.096Z,17.00
2022-10-11T23:08:59.581Z,17.00
2022-10-11T23:11:28.152Z,17.00
2022-10-11T23:13:56.592Z,17.10
2022-10-11T23:16:26.518Z,17.10
2022-10-11T23:18:55.621Z,17.10
2022-10-11T23:21:24.195Z,17.20
2022-10-11T23:23:54.847Z,17.20
2022-10-11T23:26:23.403Z,17.20
2022-10-11T23:28:55.078Z,17.20
2022-10-11T23:31:25.062Z,17.10
2022-10-11T23:33:55.084Z,17.20
2022-10-11T23:36:25.358Z,17.10
2022-10-11T23:38:55.150Z,17.20
2022-10-11T23:41:24.667Z,17.30
2022-10-11T23:43:53.350Z,17.30
2022-10-11T23:46:21.933Z,17.40
2022-10-11T23:48:51.992Z,17.40
2022-10-11T23:51:20.532Z,17.40
2022-10-11T23:53:48.975Z,17.40
2022-10-11T23:56:17.591Z,17.40
2022-10-11T23:58:46.217Z,17.40
